Roseburg, OR (97470)

9:06 AM PST on February 14, 2016 (GMT -0800)
Hucrest | | Change Station
CLOSE
Current Station
Personal Weather Station
Location: Roseburg, OR
Elevation: 425 ft
Nearby Weather Stations

Elev 425 ft 43.22 °N, 123.38 °W | Updated 5 minutes ago

Overcast
Overcast
51.3 °F
Feels Like 51.3 °F
N
0.0
Wind Variable Wind from NW
Gusts 0.0 mph

Today
High -- | Low -- °F
--% Chance of Precip.
Yesterday
High -- | Low -- °F
Precip. -- in
Pressure 30.38 in
Visibility 10.0 miles
Clouds Few 1900 ft
Overcast 4100 ft
Dew Point 49 °F
Humidity 93%
Rainfall 0.04 in
Snow Depth Not available.
7:13 AM 5:42 PM
Waxing Crescent, 43% visible
METAR KRBG 141653Z AUTO 04003KT 10SM FEW019 OVC041 11/09 A3037 RMK AO2 RAE52 SLP285 P0002 T01060094
Pressure 30.38 in
Visibility 10.0 miles
Clouds Few 1900 ft
Overcast 4100 ft
Dew Point 49 °F
Humidity 93%
Rainfall 0.04 in
Snow Depth Not available.
7:13 AM 5:42 PM
Waxing Crescent, 43% visible
METAR KRBG 141653Z AUTO 04003KT 10SM FEW019 OVC041 11/09 A3037 RMK AO2 RAE52 SLP285 P0002 T01060094

10-Day Weather Forecast

Almanac

Astronomy

Feb. 14, 2016 Rise Set
Actual Time
Civil Twilight
Nautical Twilight
Astronomical Twilight
Moon
Length of Visible Light
Length of Day
Tomorrow will be .
, % of the Moon is Illuminated

Today's Extremes

State Highs State Lows

Community

WunderPhotos

Upload Photos

1,892,849 photos uploaded!

WunderBlog® & News

Nearby

Air Quality

  Air Quality AQ Index Pollutant
Not available.

Snow Depth

Station Depth Elevation

Earthquake Activity

City Distance Mag. Time & Date
Minimum magnitude displayed is 2.5.

Coastal Water Temperatures

Place Temperature

Stations

Nearby Weather Stations

Station Location Temp. Windchill Dew Point Humidity Wind Precip. Elev Updated Type
                   

Watches & Warnings

There are currently no watches in effect.